MROC/SJO METAR and TAF weather

Enter ICAO airport designator
Station Type Date Time Source
MROC METAR 2021/04/13 22:00 UTC NOAA

MROC 132200Z 25012KT 9999 FEW035 SCT100 BKN200 26/22 A2990 NOSIG


Station Type Date Time Source
MROC Decoded METAR 2021/04/13 22:00 UTC NOAA

Juan Santamaria, Costa Rica (MROC) 10-00N 084-13W 939M
Apr 13, 2021 - 06:00 PM EDT / 2021.04.13 2200 UTC
Wind: from the WSW (250 degrees) at 14 MPH (12 KT):0
Visibility: greater than 7 mile(s):0
Sky conditions: mostly cloudy
Temperature: 78 F (26 C)
Dew Point: 71 F (22 C)
Relative Humidity: 78%
Pressure (altimeter): 29.9 in. Hg (1012 hPa)
ob: MROC 132200Z 25012KT 9999 FEW035 SCT100 BKN200 26/22 A2990 NOSIG
cycle: 22

Station Type Date Time Source
MROC TAF 2021/04/13 19:55 UTC NOAA

TAF
AMD MROC 131935Z 1319/1418 09010KT 9999 SCT040 TX29/1418Z TN20/1411Z
TEMPO 1321/1324 25006KT TSRA SCT015CB

Example: see airport list